sensor_id;sensor_type;location;lat;lon;timestamp;pressure;altitude;pressure_sealevel;temperature;humidity
73551;BME280;61816;53.582;10.096;2023-04-03T00:00:49;54479.53;;;-144.73;90.57
73551;BME280;61816;53.582;10.096;2023-04-03T00:03:16;54452.84;;;-144.73;91.09
73551;BME280;61816;53.582;10.096;2023-04-03T00:05:41;54459.00;;;-144.73;91.15
73551;BME280;61816;53.582;10.096;2023-04-03T00:08:07;54481.59;;;-144.73;92.04
73551;BME280;61816;53.582;10.096;2023-04-03T00:10:35;54473.38;;;-144.73;91.65
73551;BME280;61816;53.582;10.096;2023-04-03T00:13:01;54502.13;;;-144.73;91.75
73551;BME280;61816;53.582;10.096;2023-04-03T00:15:27;54483.66;;;-144.73;92.00
73551;BME280;61816;53.582;10.096;2023-04-03T00:17:53;54473.38;;;-144.73;91.57
73551;BME280;61816;53.582;10.096;2023-04-03T00:20:18;54481.59;;;-144.73;91.84
73551;BME280;61816;53.582;10.096;2023-04-03T00:22:43;54473.38;;;-144.73;92.28
73551;BME280;61816;53.582;10.096;2023-04-03T00:25:09;54448.75;;;-144.73;92.26
73551;BME280;61816;53.582;10.096;2023-04-03T00:27:36;54456.97;;;-144.73;92.23
73551;BME280;61816;53.582;10.096;2023-04-03T00:30:02;54481.59;;;-144.73;92.66
73551;BME280;61816;53.582;10.096;2023-04-03T00:32:28;54485.69;;;-144.73;92.04
73551;BME280;61816;53.582;10.096;2023-04-03T00:34:53;54493.91;;;-144.73;91.55
73551;BME280;61816;53.582;10.096;2023-04-03T00:37:18;54444.66;;;-144.73;92.18
73551;BME280;61816;53.582;10.096;2023-04-03T00:39:44;54477.47;;;-144.73;91.79
73551;BME280;61816;53.582;10.096;2023-04-03T00:42:10;54493.91;;;-144.73;92.00
73551;BME280;61816;53.582;10.096;2023-04-03T00:47:03;54477.47;;;-144.73;91.48
73551;BME280;61816;53.582;10.096;2023-04-03T00:49:30;54481.59;;;-144.73;91.33
73551;BME280;61816;53.582;10.096;2023-04-03T00:51:56;54512.38;;;-144.73;91.31
73551;BME280;61816;53.582;10.096;2023-04-03T00:54:23;54485.69;;;-144.73;91.26
73551;BME280;61816;53.582;10.096;2023-04-03T00:56:51;54514.44;;;-144.73;91.23
73551;BME280;61816;53.582;10.096;2023-04-03T00:59:23;54465.16;;;-144.73;91.85
73551;BME280;61816;53.582;10.096;2023-04-03T01:01:53;54463.13;;;-144.73;91.64
73551;BME280;61816;53.582;10.096;2023-04-03T01:06:55;54502.13;;;-144.73;91.95
73551;BME280;61816;53.582;10.096;2023-04-03T01:09:21;54461.06;;;-144.73;92.05
73551;BME280;61816;53.582;10.096;2023-04-03T01:11:47;54444.66;;;-144.73;92.91
73551;BME280;61816;53.582;10.096;2023-04-03T01:14:12;54489.81;;;-144.73;93.06
73551;BME280;61816;53.582;10.096;2023-04-03T01:16:37;54452.84;;;-144.73;93.52
73551;BME280;61816;53.582;10.096;2023-04-03T01:19:06;54461.06;;;-144.73;93.59
73551;BME280;61816;53.582;10.096;2023-04-03T01:24:29;54506.22;;;-144.73;94.00
73551;BME280;61816;53.582;10.096;2023-04-03T01:26:57;54463.13;;;-144.73;93.79
73551;BME280;61816;53.582;10.096;2023-04-03T01:29:22;54485.69;;;-144.73;93.99
73551;BME280;61816;53.582;10.096;2023-04-03T01:31:56;54502.13;;;-144.73;93.88
73551;BME280;61816;53.582;10.096;2023-04-03T01:34:23;54508.28;;;-144.73;93.60
73551;BME280;61816;53.582;10.096;2023-04-03T01:36:49;54510.31;;;-144.73;93.77
73551;BME280;61816;53.582;10.096;2023-04-03T01:39:16;54498.00;;;-144.73;93.55
73551;BME280;61816;53.582;10.096;2023-04-03T01:41:41;54477.47;;;-144.73;93.95
73551;BME280;61816;53.582;10.096;2023-04-03T01:44:07;54477.47;;;-144.73;93.57
73551;BME280;61816;53.582;10.096;2023-04-03T01:46:32;54524.69;;;-144.73;94.05
73551;BME280;61816;53.582;10.096;2023-04-03T01:48:58;54477.47;;;-144.73;93.73
73551;BME280;61816;53.582;10.096;2023-04-03T01:51:23;54493.91;;;-144.73;93.55
73551;BME280;61816;53.582;10.096;2023-04-03T01:53:48;54498.00;;;-144.73;93.52
73551;BME280;61816;53.582;10.096;2023-04-03T01:56:14;54514.44;;;-144.73;94.20
73551;BME280;61816;53.582;10.096;2023-04-03T01:58:39;54518.53;;;-144.73;95.22
73551;BME280;61816;53.582;10.096;2023-04-03T02:01:05;54481.59;;;-144.73;95.14
73551;BME280;61816;53.582;10.096;2023-04-03T02:03:30;54493.91;;;-144.73;95.07
73551;BME280;61816;53.582;10.096;2023-04-03T02:05:56;54502.13;;;-144.73;94.66
73551;BME280;61816;53.582;10.096;2023-04-03T02:08:22;54522.63;;;-144.73;94.86
73551;BME280;61816;53.582;10.096;2023-04-03T02:10:48;54498.00;;;-144.73;94.34
73551;BME280;61816;53.582;10.096;2023-04-03T02:13:14;54491.84;;;-144.73;94.22
73551;BME280;61816;53.582;10.096;2023-04-03T02:15:39;54477.47;;;-144.73;93.95
73551;BME280;61816;53.582;10.096;2023-04-03T02:18:05;54506.22;;;-144.73;94.32
73551;BME280;61816;53.582;10.096;2023-04-03T02:20:31;54512.38;;;-144.73;94.37
73551;BME280;61816;53.582;10.096;2023-04-03T02:22:58;54469.28;;;-144.73;94.74
73551;BME280;61816;53.582;10.096;2023-04-03T02:25:23;54481.59;;;-144.73;94.76
73551;BME280;61816;53.582;10.096;2023-04-03T02:27:49;54493.91;;;-144.73;94.41
73551;BME280;61816;53.582;10.096;2023-04-03T02:30:14;54473.38;;;-144.73;94.43
73551;BME280;61816;53.582;10.096;2023-04-03T02:32:41;54465.16;;;-144.73;94.86
73551;BME280;61816;53.582;10.096;2023-04-03T02:35:08;54477.47;;;-144.73;94.92
73551;BME280;61816;53.582;10.096;2023-04-03T02:37:33;54448.75;;;-144.73;95.17
73551;BME280;61816;53.582;10.096;2023-04-03T02:39:59;54452.84;;;-144.73;95.14
73551;BME280;61816;53.582;10.096;2023-04-03T02:42:24;54452.84;;;-144.73;95.67
73551;BME280;61816;53.582;10.096;2023-04-03T02:44:49;54489.81;;;-144.73;95.97
73551;BME280;61816;53.582;10.096;2023-04-03T02:47:15;54502.13;;;-144.73;96.02
73551;BME280;61816;53.582;10.096;2023-04-03T02:49:41;54518.53;;;-144.73;95.58
73551;BME280;61816;53.582;10.096;2023-04-03T02:52:06;54514.44;;;-144.73;95.69
73551;BME280;61816;53.582;10.096;2023-04-03T02:54:31;54491.84;;;-144.73;95.52
73551;BME280;61816;53.582;10.096;2023-04-03T02:56:57;54485.69;;;-144.73;95.26
73551;BME280;61816;53.582;10.096;2023-04-03T02:59:23;54489.81;;;-144.73;95.05
73551;BME280;61816;53.582;10.096;2023-04-03T03:01:48;54502.13;;;-144.73;94.84
73551;BME280;61816;53.582;10.096;2023-04-03T03:04:13;54493.91;;;-144.73;94.74
73551;BME280;61816;53.582;10.096;2023-04-03T03:06:39;54493.91;;;-144.73;94.97
73551;BME280;61816;53.582;10.096;2023-04-03T03:09:05;54461.06;;;-144.73;95.23
73551;BME280;61816;53.582;10.096;2023-04-03T03:11:31;54514.44;;;-144.73;94.87
73551;BME280;61816;53.582;10.096;2023-04-03T03:13:56;54518.53;;;-144.73;94.53
73551;BME280;61816;53.582;10.096;2023-04-03T03:16:21;54489.81;;;-144.73;94.46
73551;BME280;61816;53.582;10.096;2023-04-03T03:18:47;54448.75;;;-144.73;94.93
73551;BME280;61816;53.582;10.096;2023-04-03T03:21:12;54485.69;;;-144.73;94.85
73551;BME280;61816;53.582;10.096;2023-04-03T03:23:38;54481.59;;;-144.73;94.20
73551;BME280;61816;53.582;10.096;2023-04-03T03:26:06;54487.75;;;-144.73;94.30
73551;BME280;61816;53.582;10.096;2023-04-03T03:28:32;54463.13;;;-144.73;94.55
73551;BME280;61816;53.582;10.096;2023-04-03T03:30:58;54452.84;;;-144.73;95.50
73551;BME280;61816;53.582;10.096;2023-04-03T03:33:24;54493.91;;;-144.73;95.19
73551;BME280;61816;53.582;10.096;2023-04-03T03:35:51;54502.13;;;-144.73;95.11
73551;BME280;61816;53.582;10.096;2023-04-03T03:38:16;54469.28;;;-144.73;94.84
73551;BME280;61816;53.582;10.096;2023-04-03T03:40:42;54481.59;;;-144.73;94.66
73551;BME280;61816;53.582;10.096;2023-04-03T03:43:07;54469.28;;;-144.73;94.91
73551;BME280;61816;53.582;10.096;2023-04-03T03:45:32;54456.97;;;-144.73;95.18
73551;BME280;61816;53.582;10.096;2023-04-03T03:47:58;54473.38;;;-144.73;95.21
73551;BME280;61816;53.582;10.096;2023-04-03T03:50:23;54485.69;;;-144.73;95.14
73551;BME280;61816;53.582;10.096;2023-04-03T03:52:48;54485.69;;;-144.73;94.73
73551;BME280;61816;53.582;10.096;2023-04-03T03:55:14;54465.16;;;-144.73;94.82
73551;BME280;61816;53.582;10.096;2023-04-03T03:57:39;54459.00;;;-144.73;94.62
73551;BME280;61816;53.582;10.096;2023-04-03T04:00:05;54547.28;;;-144.73;94.73
73551;BME280;61816;53.582;10.096;2023-04-03T04:02:32;54495.97;;;-144.73;94.54
73551;BME280;61816;53.582;10.096;2023-04-03T04:04:58;54452.84;;;-144.73;95.06
73551;BME280;61816;53.582;10.096;2023-04-03T04:07:23;54473.38;;;-144.73;94.71
73551;BME280;61816;53.582;10.096;2023-04-03T04:09:48;54481.59;;;-144.73;94.50
73551;BME280;61816;53.582;10.096;2023-04-03T04:12:14;54485.69;;;-144.73;94.59
73551;BME280;61816;53.582;10.096;2023-04-03T04:14:39;54473.38;;;-144.73;94.89
73551;BME280;61816;53.582;10.096;2023-04-03T04:17:05;54506.22;;;-144.73;94.58
73551;BME280;61816;53.582;10.096;2023-04-03T04:19:31;54485.69;;;-144.73;94.61
73551;BME280;61816;53.582;10.096;2023-04-03T04:21:56;54481.59;;;-144.73;94.68
73551;BME280;61816;53.582;10.096;2023-04-03T04:24:21;54479.53;;;-144.73;95.14
73551;BME280;61816;53.582;10.096;2023-04-03T04:26:48;54477.47;;;-144.73;95.46
73551;BME280;61816;53.582;10.096;2023-04-03T04:29:13;54473.38;;;-144.73;95.22
73551;BME280;61816;53.582;10.096;2023-04-03T04:31:39;54539.06;;;-144.73;95.27
73551;BME280;61816;53.582;10.096;2023-04-03T04:34:04;54481.59;;;-144.73;95.77
73551;BME280;61816;53.582;10.096;2023-04-03T04:36:30;54516.47;;;-144.73;96.24
73551;BME280;61816;53.582;10.096;2023-04-03T04:38:55;54485.69;;;-144.73;96.23
73551;BME280;61816;53.582;10.096;2023-04-03T04:41:21;54463.13;;;-144.73;95.50
73551;BME280;61816;53.582;10.096;2023-04-03T04:43:51;54473.38;;;-144.73;95.75
73551;BME280;61816;53.582;10.096;2023-04-03T04:46:17;54485.69;;;-144.73;95.74
73551;BME280;61816;53.582;10.096;2023-04-03T04:48:43;54506.22;;;-144.73;95.82
73551;BME280;61816;53.582;10.096;2023-04-03T04:51:09;54506.22;;;-144.73;95.44
73551;BME280;61816;53.582;10.096;2023-04-03T04:53:35;54498.00;;;-144.73;95.34
73551;BME280;61816;53.582;10.096;2023-04-03T04:56:00;54456.97;;;-144.73;95.51
73551;BME280;61816;53.582;10.096;2023-04-03T04:58:26;54477.47;;;-144.73;95.42
73551;BME280;61816;53.582;10.096;2023-04-03T05:01:02;54465.16;;;-144.73;96.06
73551;BME280;61816;53.582;10.096;2023-04-03T05:03:27;54473.38;;;-144.73;95.80
73551;BME280;61816;53.582;10.096;2023-04-03T05:05:53;54469.28;;;-144.73;96.02
73551;BME280;61816;53.582;10.096;2023-04-03T05:08:18;54473.38;;;-144.73;96.71
73551;BME280;61816;53.582;10.096;2023-04-03T05:10:45;54465.16;;;-144.73;96.63
73551;BME280;61816;53.582;10.096;2023-04-03T05:13:11;54487.75;;;-144.73;96.37
73551;BME280;61816;53.582;10.096;2023-04-03T05:15:36;54469.28;;;-144.73;96.15
73551;BME280;61816;53.582;10.096;2023-04-03T05:18:02;54489.81;;;-144.73;96.47
73551;BME280;61816;53.582;10.096;2023-04-03T05:20:28;54493.91;;;-144.73;96.61
73551;BME280;61816;53.582;10.096;2023-04-03T05:22:53;54510.31;;;-144.73;96.98
73551;BME280;61816;53.582;10.096;2023-04-03T05:25:18;54456.97;;;-144.73;96.83
73551;BME280;61816;53.582;10.096;2023-04-03T05:27:44;54481.59;;;-144.73;96.91
73551;BME280;61816;53.582;10.096;2023-04-03T05:30:09;54452.84;;;-144.73;96.95
73551;BME280;61816;53.582;10.096;2023-04-03T05:32:35;54444.66;;;-144.73;96.49
73551;BME280;61816;53.582;10.096;2023-04-03T05:35:00;54500.06;;;-144.73;96.45
73551;BME280;61816;53.582;10.096;2023-04-03T05:37:26;54477.47;;;-144.73;97.34
73551;BME280;61816;53.582;10.096;2023-04-03T05:39:52;54498.00;;;-144.73;97.32
73551;BME280;61816;53.582;10.096;2023-04-03T05:42:17;54444.66;;;-144.73;97.40
73551;BME280;61816;53.582;10.096;2023-04-03T05:44:43;54465.16;;;-144.73;97.17
73551;BME280;61816;53.582;10.096;2023-04-03T05:47:09;54493.91;;;-144.73;97.72
73551;BME280;61816;53.582;10.096;2023-04-03T05:49:34;54489.81;;;-144.73;97.61
73551;BME280;61816;53.582;10.096;2023-04-03T05:52:01;54489.81;;;-144.73;97.57
73551;BME280;61816;53.582;10.096;2023-04-03T05:54:28;54461.06;;;-144.73;97.99
73551;BME280;61816;53.582;10.096;2023-04-03T05:56:54;54500.06;;;-144.73;97.64
73551;BME280;61816;53.582;10.096;2023-04-03T05:59:20;54465.16;;;-144.73;97.29
73551;BME280;61816;53.582;10.096;2023-04-03T06:01:46;54469.28;;;-144.73;96.71
73551;BME280;61816;53.582;10.096;2023-04-03T06:04:12;54485.69;;;-144.73;96.60
73551;BME280;61816;53.582;10.096;2023-04-03T06:09:20;54508.28;;;-144.73;96.02
73551;BME280;61816;53.582;10.096;2023-04-03T06:11:46;54477.47;;;-144.73;95.45
73551;BME280;61816;53.582;10.096;2023-04-03T06:14:11;54506.22;;;-144.73;95.30
73551;BME280;61816;53.582;10.096;2023-04-03T06:16:37;54498.00;;;-144.73;95.67
73551;BME280;61816;53.582;10.096;2023-04-03T06:19:04;54452.84;;;-144.73;95.23
73551;BME280;61816;53.582;10.096;2023-04-03T06:21:31;54506.22;;;-144.73;94.35
73551;BME280;61816;53.582;10.096;2023-04-03T06:23:56;54518.53;;;-144.73;94.07
73551;BME280;61816;53.582;10.096;2023-04-03T06:26:22;54489.81;;;-144.73;94.23
73551;BME280;61816;53.582;10.096;2023-04-03T06:28:47;54498.00;;;-144.73;93.18
73551;BME280;61816;53.582;10.096;2023-04-03T06:31:13;54493.91;;;-144.73;92.88
73551;BME280;61816;53.582;10.096;2023-04-03T06:33:38;54461.06;;;-144.73;92.97
73551;BME280;61816;53.582;10.096;2023-04-03T06:36:04;54510.31;;;-144.73;92.31
73551;BME280;61816;53.582;10.096;2023-04-03T06:38:31;54539.06;;;-144.73;91.00
73551;BME280;61816;53.582;10.096;2023-04-03T06:40:56;54506.22;;;-144.73;90.87
73551;BME280;61816;53.582;10.096;2023-04-03T06:43:22;54473.38;;;-144.73;90.40
73551;BME280;61816;53.582;10.096;2023-04-03T06:45:47;54452.84;;;-144.73;89.90
73551;BME280;61816;53.582;10.096;2023-04-03T06:48:13;54473.38;;;-144.73;89.34
73551;BME280;61816;53.582;10.096;2023-04-03T06:50:38;54506.22;;;-144.73;89.05
73551;BME280;61816;53.582;10.096;2023-04-03T06:53:04;54506.22;;;-144.73;88.54
73551;BME280;61816;53.582;10.096;2023-04-03T06:55:29;54456.97;;;-144.73;88.06
73551;BME280;61816;53.582;10.096;2023-04-03T06:57:55;54559.59;;;-144.73;87.59
73551;BME280;61816;53.582;10.096;2023-04-03T07:00:21;54502.13;;;-144.73;86.94
73551;BME280;61816;53.582;10.096;2023-04-03T07:02:46;54512.38;;;-144.73;87.11
73551;BME280;61816;53.582;10.096;2023-04-03T07:05:12;54506.22;;;-144.73;86.64
73551;BME280;61816;53.582;10.096;2023-04-03T07:07:38;54539.06;;;-144.73;86.15
73551;BME280;61816;53.582;10.096;2023-04-03T07:10:05;54452.84;;;-144.73;86.03
73551;BME280;61816;53.582;10.096;2023-04-03T07:12:33;54512.38;;;-144.73;85.80
73551;BME280;61816;53.582;10.096;2023-04-03T07:14:58;54498.00;;;-144.73;84.92
73551;BME280;61816;53.582;10.096;2023-04-03T07:17:24;54489.81;;;-144.73;84.13
73551;BME280;61816;53.582;10.096;2023-04-03T07:19:50;54498.00;;;-144.73;84.01
73551;BME280;61816;53.582;10.096;2023-04-03T07:22:16;54498.00;;;-144.73;83.79
73551;BME280;61816;53.582;10.096;2023-04-03T07:24:41;54491.84;;;-144.73;83.57
73551;BME280;61816;53.582;10.096;2023-04-03T07:27:07;54485.69;;;-144.73;83.51
73551;BME280;61816;53.582;10.096;2023-04-03T07:29:34;54498.00;;;-144.73;83.03
73551;BME280;61816;53.582;10.096;2023-04-03T07:32:00;54514.44;;;-144.73;82.55
73551;BME280;61816;53.582;10.096;2023-04-03T07:34:26;54489.81;;;-144.73;82.17
73551;BME280;61816;53.582;10.096;2023-04-03T07:36:52;54452.84;;;-144.73;81.79
73551;BME280;61816;53.582;10.096;2023-04-03T07:39:17;54493.91;;;-144.73;80.41
73551;BME280;61816;53.582;10.096;2023-04-03T07:41:42;54502.13;;;-144.73;78.21
73551;BME280;61816;53.582;10.096;2023-04-03T07:44:08;54481.59;;;-144.73;77.30
73551;BME280;61816;53.582;10.096;2023-04-03T07:46:35;54495.97;;;-144.73;76.21
73551;BME280;61816;53.582;10.096;2023-04-03T07:49:01;54452.84;;;-144.73;76.52
73551;BME280;61816;53.582;10.096;2023-04-03T07:51:26;54481.59;;;-144.73;73.57
73551;BME280;61816;53.582;10.096;2023-04-03T07:53:53;54514.44;;;-144.73;71.76
73551;BME280;61816;53.582;10.096;2023-04-03T07:56:18;54481.59;;;-144.73;70.34
73551;BME280;61816;53.582;10.096;2023-04-03T07:58:45;54498.00;;;-144.73;69.73
73551;BME280;61816;53.582;10.096;2023-04-03T08:01:11;54444.66;;;-144.73;69.28
73551;BME280;61816;53.582;10.096;2023-04-03T08:03:37;54452.84;;;-144.73;68.49
73551;BME280;61816;53.582;10.096;2023-04-03T08:06:06;54424.13;;;-144.73;67.95
73551;BME280;61816;53.582;10.096;2023-04-03T08:08:32;54473.38;;;-144.73;66.68
73551;BME280;61816;53.582;10.096;2023-04-03T08:11:00;54461.06;;;-144.73;65.67
73551;BME280;61816;53.582;10.096;2023-04-03T08:13:25;54485.69;;;-144.73;65.34
73551;BME280;61816;53.582;10.096;2023-04-03T08:15:51;54502.13;;;-144.73;65.63
73551;BME280;61816;53.582;10.096;2023-04-03T08:18:18;54465.16;;;-144.73;64.09
73551;BME280;61816;53.582;10.096;2023-04-03T08:20:46;54473.38;;;-144.73;64.46
73551;BME280;61816;53.582;10.096;2023-04-03T08:23:12;54420.00;;;-144.73;64.07
73551;BME280;61816;53.582;10.096;2023-04-03T08:25:41;54461.06;;;-144.73;65.24
73551;BME280;61816;53.582;10.096;2023-04-03T08:28:07;54448.75;;;-144.73;64.36
73551;BME280;61816;53.582;10.096;2023-04-03T08:30:33;54442.59;;;-144.73;63.03
73551;BME280;61816;53.582;10.096;2023-04-03T08:33:01;54409.75;;;-144.73;62.89
73551;BME280;61816;53.582;10.096;2023-04-03T08:35:27;54448.75;;;-144.73;61.94
73551;BME280;61816;53.582;10.096;2023-04-03T08:37:52;54456.97;;;-144.73;61.21
73551;BME280;61816;53.582;10.096;2023-04-03T08:40:17;54432.31;;;-144.73;59.60
73551;BME280;61816;53.582;10.096;2023-04-03T08:45:19;54440.53;;;-144.73;57.72
73551;BME280;61816;53.582;10.096;2023-04-03T08:48:24;54399.50;;;-144.73;56.21
73551;BME280;61816;53.582;10.096;2023-04-03T08:50:54;54485.69;;;-144.73;57.29
73551;BME280;61816;53.582;10.096;2023-04-03T08:53:24;54461.06;;;-144.73;57.34
73551;BME280;61816;53.582;10.096;2023-04-03T08:55:53;54473.38;;;-144.73;55.53
73551;BME280;61816;53.582;10.096;2023-04-03T08:58:21;54452.84;;;-144.73;53.86
73551;BME280;61816;53.582;10.096;2023-04-03T09:01:05;54436.44;;;-144.73;54.01
73551;BME280;61816;53.582;10.096;2023-04-03T09:03:34;54452.84;;;-144.73;52.92
73551;BME280;61816;53.582;10.096;2023-04-03T09:06:16;54469.28;;;-144.73;52.42
73551;BME280;61816;53.582;10.096;2023-04-03T09:16:59;54473.38;;;-144.73;48.15
73551;BME280;61816;53.582;10.096;2023-04-03T09:22:11;54465.16;;;-144.73;47.80
73551;BME280;61816;53.582;10.096;2023-04-03T09:24:39;54452.84;;;-144.73;47.96
73551;BME280;61816;53.582;10.096;2023-04-03T09:27:09;54452.84;;;-144.73;47.86
73551;BME280;61816;53.582;10.096;2023-04-03T09:29:39;54444.66;;;-144.73;46.80
73551;BME280;61816;53.582;10.096;2023-04-03T09:32:29;54407.69;;;-144.73;46.19
73551;BME280;61816;53.582;10.096;2023-04-03T09:35:04;54465.16;;;-144.73;45.11
73551;BME280;61816;53.582;10.096;2023-04-03T09:37:41;54465.16;;;-144.73;43.85
73551;BME280;61816;53.582;10.096;2023-04-03T09:40:27;54461.06;;;-144.73;43.47
73551;BME280;61816;53.582;10.096;2023-04-03T09:42:55;54461.06;;;-144.73;42.03
73551;BME280;61816;53.582;10.096;2023-04-03T09:45:33;54459.00;;;-144.73;42.28
73551;BME280;61816;53.582;10.096;2023-04-03T09:50:53;54456.97;;;-144.73;41.94
73551;BME280;61816;53.582;10.096;2023-04-03T09:53:31;54473.38;;;-144.73;41.39
73551;BME280;61816;53.582;10.096;2023-04-03T09:55:58;54420.00;;;-144.73;40.16
73551;BME280;61816;53.582;10.096;2023-04-03T09:58:33;54420.00;;;-144.73;41.10
73551;BME280;61816;53.582;10.096;2023-04-03T10:01:02;54452.84;;;-144.73;40.11
73551;BME280;61816;53.582;10.096;2023-04-03T10:03:35;54428.22;;;-144.73;40.08
73551;BME280;61816;53.582;10.096;2023-04-03T10:06:21;54452.84;;;-144.73;40.70
73551;BME280;61816;53.582;10.096;2023-04-03T10:08:59;54411.81;;;-144.73;39.96
73551;BME280;61816;53.582;10.096;2023-04-03T10:11:26;54411.81;;;-144.73;40.32
73551;BME280;61816;53.582;10.096;2023-04-03T10:13:53;54430.28;;;-144.73;39.66
73551;BME280;61816;53.582;10.096;2023-04-03T10:27:42;54442.59;;;-144.73;38.59
73551;BME280;61816;53.582;10.096;2023-04-03T10:30:29;54428.22;;;-144.73;37.92
73551;BME280;61816;53.582;10.096;2023-04-03T10:33:18;54440.53;;;-144.73;38.73
73551;BME280;61816;53.582;10.096;2023-04-03T10:36:04;54440.53;;;-144.73;39.23
73551;BME280;61816;53.582;10.096;2023-04-03T10:41:17;54383.06;;;-144.73;40.62
73551;BME280;61816;53.582;10.096;2023-04-03T10:43:52;54430.28;;;-144.73;40.07
73551;BME280;61816;53.582;10.096;2023-04-03T10:46:31;54473.38;;;-144.73;41.15
73551;BME280;61816;53.582;10.096;2023-04-03T10:49:27;54448.75;;;-144.73;40.65
73551;BME280;61816;53.582;10.096;2023-04-03T10:52:05;54440.53;;;-144.73;41.76
73551;BME280;61816;53.582;10.096;2023-04-03T10:54:40;54448.75;;;-144.73;43.29
73551;BME280;61816;53.582;10.096;2023-04-03T10:57:11;54434.38;;;-144.73;42.82
73551;BME280;61816;53.582;10.096;2023-04-03T10:59:49;54395.38;;;-144.73;41.61
73551;BME280;61816;53.582;10.096;2023-04-03T11:04:55;54440.53;;;-144.73;41.30
73551;BME280;61816;53.582;10.096;2023-04-03T11:07:43;54407.69;;;-144.73;42.65
73551;BME280;61816;53.582;10.096;2023-04-03T11:10:35;54415.91;;;-144.73;42.79
73551;BME280;61816;53.582;10.096;2023-04-03T11:13:11;54485.69;;;-144.73;43.29
73551;BME280;61816;53.582;10.096;2023-04-03T11:15:38;54434.38;;;-144.73;43.75
73551;BME280;61816;53.582;10.096;2023-04-03T11:18:10;54444.66;;;-144.73;43.05
73551;BME280;61816;53.582;10.096;2023-04-03T11:20:41;54407.69;;;-144.73;40.69
73551;BME280;61816;53.582;10.096;2023-04-03T11:23:54;54432.31;;;-144.73;40.69
73551;BME280;61816;53.582;10.096;2023-04-03T11:26:04;54440.53;;;-144.73;37.69
73551;BME280;61816;53.582;10.096;2023-04-03T11:28:32;54440.53;;;-144.73;39.54
73551;BME280;61816;53.582;10.096;2023-04-03T11:31:13;54440.53;;;-144.73;39.77
73551;BME280;61816;53.582;10.096;2023-04-03T11:36:31;54422.06;;;-144.73;41.63
73551;BME280;61816;53.582;10.096;2023-04-03T11:39:02;54432.31;;;-144.73;42.98
73551;BME280;61816;53.582;10.096;2023-04-03T11:41:33;54456.97;;;-144.73;44.00
73551;BME280;61816;53.582;10.096;2023-04-03T11:44:06;54436.44;;;-144.73;44.20
73551;BME280;61816;53.582;10.096;2023-04-03T11:46:54;54465.16;;;-144.73;44.39
73551;BME280;61816;53.582;10.096;2023-04-03T12:00:50;54477.47;;;-144.73;44.71
73551;BME280;61816;53.582;10.096;2023-04-03T12:38:11;54456.97;;;-144.73;32.83
73551;BME280;61816;53.582;10.096;2023-04-03T12:40:16;54422.06;;;-144.73;34.37
73551;BME280;61816;53.582;10.096;2023-04-03T12:45:26;54477.47;;;-144.73;35.45
73551;BME280;61816;53.582;10.096;2023-04-03T12:47:54;54440.53;;;-144.73;36.89
73551;BME280;61816;53.582;10.096;2023-04-03T12:50:31;54477.47;;;-144.73;39.13
73551;BME280;61816;53.582;10.096;2023-04-03T12:53:05;54428.22;;;-144.73;38.29
73551;BME280;61816;53.582;10.096;2023-04-03T12:55:31;54415.91;;;-144.73;37.60
73551;BME280;61816;53.582;10.096;2023-04-03T12:58:13;54389.22;;;-144.73;36.50
73551;BME280;61816;53.582;10.096;2023-04-03T13:00:38;54420.00;;;-144.73;35.16
73551;BME280;61816;53.582;10.096;2023-04-03T13:03:06;54399.50;;;-144.73;33.81
73551;BME280;61816;53.582;10.096;2023-04-03T13:05:45;54415.91;;;-144.73;32.59
73551;BME280;61816;53.582;10.096;2023-04-03T13:08:12;54424.13;;;-144.73;34.08
73551;BME280;61816;53.582;10.096;2023-04-03T13:11:02;54391.28;;;-144.73;33.63
73551;BME280;61816;53.582;10.096;2023-04-03T13:13:29;54448.75;;;-144.73;31.96
73551;BME280;61816;53.582;10.096;2023-04-03T13:15:55;54448.75;;;-144.73;32.39
73551;BME280;61816;53.582;10.096;2023-04-03T13:18:30;54440.53;;;-144.73;32.43
73551;BME280;61816;53.582;10.096;2023-04-03T13:21:03;54440.53;;;-144.73;32.91
73551;BME280;61816;53.582;10.096;2023-04-03T13:23:30;54399.50;;;-144.73;32.70
73551;BME280;61816;53.582;10.096;2023-04-03T13:25:57;54432.31;;;-144.73;32.66
73551;BME280;61816;53.582;10.096;2023-04-03T13:28:29;54473.38;;;-144.73;33.14
73551;BME280;61816;53.582;10.096;2023-04-03T13:31:07;54440.53;;;-144.73;33.74
73551;BME280;61816;53.582;10.096;2023-04-03T13:33:36;54440.53;;;-144.73;33.82
73551;BME280;61816;53.582;10.096;2023-04-03T13:36:20;54436.44;;;-144.73;33.75
73551;BME280;61816;53.582;10.096;2023-04-03T13:38:58;54383.06;;;-144.73;32.47
73551;BME280;61816;53.582;10.096;2023-04-03T13:41:36;54452.84;;;-144.73;32.78
73551;BME280;61816;53.582;10.096;2023-04-03T13:44:26;54452.84;;;-144.73;32.32
73551;BME280;61816;53.582;10.096;2023-04-03T13:46:58;54456.97;;;-144.73;32.60
73551;BME280;61816;53.582;10.096;2023-04-03T13:49:38;54420.00;;;-144.73;30.39
73551;BME280;61816;53.582;10.096;2023-04-03T13:52:25;54436.44;;;-144.73;31.23
73551;BME280;61816;53.582;10.096;2023-04-03T13:54:56;54436.44;;;-144.73;30.40
73551;BME280;61816;53.582;10.096;2023-04-03T13:57:23;54424.13;;;-144.73;29.93
73551;BME280;61816;53.582;10.096;2023-04-03T13:59:49;54420.00;;;-144.73;29.53
73551;BME280;61816;53.582;10.096;2023-04-03T14:02:22;54450.81;;;-144.73;29.56
73551;BME280;61816;53.582;10.096;2023-04-03T14:04:52;54444.66;;;-144.73;30.59
73551;BME280;61816;53.582;10.096;2023-04-03T14:07:22;54452.84;;;-144.73;30.41
73551;BME280;61816;53.582;10.096;2023-04-03T14:09:48;54432.31;;;-144.73;31.32
73551;BME280;61816;53.582;10.096;2023-04-03T14:12:18;54409.75;;;-144.73;30.96